sensor_id;sensor_type;location;lat;lon;timestamp;pressure;altitude;pressure_sealevel;temperature;humidity
79671;BME280;69137;50.878;8.050;2024-02-28T00:01:01;98381.78;;;-0.17;89.43
79671;BME280;69137;50.878;8.050;2024-02-28T00:03:26;98380.16;;;-0.12;89.12
79671;BME280;69137;50.878;8.050;2024-02-28T00:05:52;98383.47;;;-0.10;89.16
79671;BME280;69137;50.878;8.050;2024-02-28T00:08:17;98380.97;;;-0.11;88.87
79671;BME280;69137;50.878;8.050;2024-02-28T00:10:44;98390.47;;;-0.09;88.35
79671;BME280;69137;50.878;8.050;2024-02-28T00:13:09;98385.50;;;-0.12;88.69
79671;BME280;69137;50.878;8.050;2024-02-28T00:15:34;98389.09;;;-0.33;88.86
79671;BME280;69137;50.878;8.050;2024-02-28T00:18:00;98391.97;;;-0.34;88.92
79671;BME280;69137;50.878;8.050;2024-02-28T00:20:25;98400.41;;;-0.44;89.30
79671;BME280;69137;50.878;8.050;2024-02-28T00:22:52;98409.16;;;-0.57;88.95
79671;BME280;69137;50.878;8.050;2024-02-28T00:25:17;98408.72;;;-0.60;89.95
79671;BME280;69137;50.878;8.050;2024-02-28T00:27:43;98410.03;;;-0.50;90.31
79671;BME280;69137;50.878;8.050;2024-02-28T00:30:08;98417.50;;;-0.45;90.62
79671;BME280;69137;50.878;8.050;2024-02-28T00:32:34;98411.38;;;-0.39;89.88
79671;BME280;69137;50.878;8.050;2024-02-28T00:34:59;98413.41;;;-0.41;90.04
79671;BME280;69137;50.878;8.050;2024-02-28T00:37:24;98416.97;;;-0.34;90.15
79671;BME280;69137;50.878;8.050;2024-02-28T00:39:50;98413.50;;;-0.28;89.58
79671;BME280;69137;50.878;8.050;2024-02-28T00:42:16;98415.97;;;-0.26;89.68
79671;BME280;69137;50.878;8.050;2024-02-28T00:44:41;98416.84;;;-0.26;89.90
79671;BME280;69137;50.878;8.050;2024-02-28T00:47:08;98416.97;;;-0.34;91.31
79671;BME280;69137;50.878;8.050;2024-02-28T00:49:33;98433.53;;;-0.30;91.44
79671;BME280;69137;50.878;8.050;2024-02-28T00:51:59;98422.22;;;-0.26;91.02
79671;BME280;69137;50.878;8.050;2024-02-28T00:54:25;98427.94;;;-0.29;90.69
79671;BME280;69137;50.878;8.050;2024-02-28T00:56:51;98418.66;;;-0.26;90.77
79671;BME280;69137;50.878;8.050;2024-02-28T00:59:16;98420.50;;;-0.33;91.37
79671;BME280;69137;50.878;8.050;2024-02-28T01:01:41;98421.81;;;-0.23;91.71
79671;BME280;69137;50.878;8.050;2024-02-28T01:04:07;98416.78;;;-0.32;92.16
79671;BME280;69137;50.878;8.050;2024-02-28T01:06:32;98413.06;;;-0.31;91.97
79671;BME280;69137;50.878;8.050;2024-02-28T01:08:58;98416.78;;;-0.32;91.92
79671;BME280;69137;50.878;8.050;2024-02-28T01:11:24;98419.47;;;-0.32;92.53
79671;BME280;69137;50.878;8.050;2024-02-28T01:13:49;98417.91;;;-0.20;92.21
79671;BME280;69137;50.878;8.050;2024-02-28T01:16:15;98414.56;;;-0.22;92.31
79671;BME280;69137;50.878;8.050;2024-02-28T01:18:41;98419.59;;;-0.12;92.49
79671;BME280;69137;50.878;8.050;2024-02-28T01:21:07;98415.47;;;-0.08;93.06
79671;BME280;69137;50.878;8.050;2024-02-28T01:23:32;98431.88;;;0.04;93.58
79671;BME280;69137;50.878;8.050;2024-02-28T01:25:57;98424.41;;;-0.01;93.11
79671;BME280;69137;50.878;8.050;2024-02-28T01:28:31;98419.84;;;-0.07;93.33
79671;BME280;69137;50.878;8.050;2024-02-28T01:30:57;98427.50;;;-0.04;93.97
79671;BME280;69137;50.878;8.050;2024-02-28T01:33:23;98437.03;;;-0.02;94.23
79671;BME280;69137;50.878;8.050;2024-02-28T01:35:48;98434.56;;;0.04;94.50
79671;BME280;69137;50.878;8.050;2024-02-28T01:38:13;98435.81;;;0.08;94.47
79671;BME280;69137;50.878;8.050;2024-02-28T01:40:44;98444.56;;;0.16;94.33
79671;BME280;69137;50.878;8.050;2024-02-28T01:43:11;98445.41;;;0.17;94.25
79671;BME280;69137;50.878;8.050;2024-02-28T01:45:36;98443.34;;;0.19;94.64
79671;BME280;69137;50.878;8.050;2024-02-28T01:48:02;98435.72;;;0.22;94.63
79671;BME280;69137;50.878;8.050;2024-02-28T01:50:28;98434.00;;;0.15;95.21
79671;BME280;69137;50.878;8.050;2024-02-28T01:52:53;98422.13;;;-0.04;96.32
79671;BME280;69137;50.878;8.050;2024-02-28T01:55:19;98424.66;;;0.04;96.21
79671;BME280;69137;50.878;8.050;2024-02-28T01:57:44;98430.91;;;0.11;95.98
79671;BME280;69137;50.878;8.050;2024-02-28T02:00:11;98433.00;;;0.16;96.35
79671;BME280;69137;50.878;8.050;2024-02-28T02:02:36;98436.50;;;0.16;96.46
79671;BME280;69137;50.878;8.050;2024-02-28T02:05:02;98426.59;;;0.17;96.79
79671;BME280;69137;50.878;8.050;2024-02-28T02:07:28;98431.72;;;0.12;97.35
79671;BME280;69137;50.878;8.050;2024-02-28T02:09:53;98434.84;;;0.15;97.96
79671;BME280;69137;50.878;8.050;2024-02-28T02:12:19;98421.22;;;0.17;97.53
79671;BME280;69137;50.878;8.050;2024-02-28T02:14:48;98428.84;;;0.13;97.32
79671;BME280;69137;50.878;8.050;2024-02-28T02:17:14;98429.50;;;0.22;97.34
79671;BME280;69137;50.878;8.050;2024-02-28T02:19:39;98441.53;;;0.26;96.52
79671;BME280;69137;50.878;8.050;2024-02-28T02:22:05;98442.38;;;0.33;96.45
79671;BME280;69137;50.878;8.050;2024-02-28T02:24:33;98439.50;;;0.35;95.95
79671;BME280;69137;50.878;8.050;2024-02-28T02:26:58;98440.13;;;0.37;95.84
79671;BME280;69137;50.878;8.050;2024-02-28T02:29:23;98444.06;;;0.41;95.58
79671;BME280;69137;50.878;8.050;2024-02-28T02:31:49;98444.69;;;0.36;95.75
79671;BME280;69137;50.878;8.050;2024-02-28T02:34:14;98438.97;;;0.18;97.58
79671;BME280;69137;50.878;8.050;2024-02-28T02:36:39;98443.78;;;0.22;98.23
79671;BME280;69137;50.878;8.050;2024-02-28T02:39:04;98446.09;;;0.32;97.93
79671;BME280;69137;50.878;8.050;2024-02-28T02:41:30;98441.38;;;0.41;97.79
79671;BME280;69137;50.878;8.050;2024-02-28T02:43:55;98429.56;;;0.35;98.34
79671;BME280;69137;50.878;8.050;2024-02-28T02:46:22;98436.22;;;0.46;98.53
79671;BME280;69137;50.878;8.050;2024-02-28T02:48:47;98435.44;;;0.52;98.58
79671;BME280;69137;50.878;8.050;2024-02-28T02:51:12;98440.59;;;0.54;98.91
79671;BME280;69137;50.878;8.050;2024-02-28T02:53:37;98432.94;;;0.51;99.22
79671;BME280;69137;50.878;8.050;2024-02-28T02:56:03;98445.56;;;0.50;99.31
79671;BME280;69137;50.878;8.050;2024-02-28T02:58:29;98447.22;;;0.51;99.41
79671;BME280;69137;50.878;8.050;2024-02-28T03:00:54;98446.22;;;0.52;99.70
79671;BME280;69137;50.878;8.050;2024-02-28T03:03:19;98433.31;;;0.41;100.00
79671;BME280;69137;50.878;8.050;2024-02-28T03:05:44;98436.63;;;0.36;100.00
79671;BME280;69137;50.878;8.050;2024-02-28T03:08:10;98434.13;;;0.35;100.00
79671;BME280;69137;50.878;8.050;2024-02-28T03:10:36;98443.47;;;0.46;100.00
79671;BME280;69137;50.878;8.050;2024-02-28T03:13:01;98449.09;;;0.51;100.00
79671;BME280;69137;50.878;8.050;2024-02-28T03:15:27;98454.06;;;0.54;100.00
79671;BME280;69137;50.878;8.050;2024-02-28T03:17:52;98443.97;;;0.62;100.00
79671;BME280;69137;50.878;8.050;2024-02-28T03:20:17;98441.69;;;0.66;100.00
79671;BME280;69137;50.878;8.050;2024-02-28T03:22:43;98450.59;;;0.60;100.00
79671;BME280;69137;50.878;8.050;2024-02-28T03:25:08;98449.56;;;0.68;100.00
79671;BME280;69137;50.878;8.050;2024-02-28T03:27:34;98430.81;;;0.33;100.00
79671;BME280;69137;50.878;8.050;2024-02-28T03:29:59;98433.75;;;0.45;100.00
79671;BME280;69137;50.878;8.050;2024-02-28T03:32:24;98440.00;;;0.58;100.00
79671;BME280;69137;50.878;8.050;2024-02-28T03:34:50;98452.03;;;0.62;100.00
79671;BME280;69137;50.878;8.050;2024-02-28T03:37:15;98443.56;;;0.65;100.00
79671;BME280;69137;50.878;8.050;2024-02-28T03:39:40;98454.78;;;0.76;100.00
79671;BME280;69137;50.878;8.050;2024-02-28T03:42:06;98454.16;;;0.80;100.00
79671;BME280;69137;50.878;8.050;2024-02-28T03:44:31;98457.28;;;0.91;100.00
79671;BME280;69137;50.878;8.050;2024-02-28T03:46:56;98460.19;;;0.96;99.76
79671;BME280;69137;50.878;8.050;2024-02-28T03:49:22;98462.88;;;0.96;99.50
79671;BME280;69137;50.878;8.050;2024-02-28T03:51:47;98467.44;;;0.89;99.57
79671;BME280;69137;50.878;8.050;2024-02-28T03:54:12;98471.09;;;0.74;100.00
79671;BME280;69137;50.878;8.050;2024-02-28T03:56:37;98472.56;;;0.77;100.00
79671;BME280;69137;50.878;8.050;2024-02-28T03:59:03;98470.69;;;0.71;100.00
79671;BME280;69137;50.878;8.050;2024-02-28T04:01:29;98466.53;;;0.75;100.00
79671;BME280;69137;50.878;8.050;2024-02-28T04:03:54;98464.06;;;0.73;100.00
79671;BME280;69137;50.878;8.050;2024-02-28T04:06:20;98467.59;;;0.80;100.00
79671;BME280;69137;50.878;8.050;2024-02-28T04:08:45;98467.00;;;0.78;100.00
79671;BME280;69137;50.878;8.050;2024-02-28T04:11:10;98475.44;;;0.69;100.00
79671;BME280;69137;50.878;8.050;2024-02-28T04:13:35;98475.25;;;0.77;100.00
79671;BME280;69137;50.878;8.050;2024-02-28T04:16:04;98480.16;;;0.67;100.00
79671;BME280;69137;50.878;8.050;2024-02-28T04:18:29;98485.78;;;0.72;100.00
79671;BME280;69137;50.878;8.050;2024-02-28T04:20:55;98499.44;;;0.77;100.00
79671;BME280;69137;50.878;8.050;2024-02-28T04:23:20;98493.06;;;0.84;100.00
79671;BME280;69137;50.878;8.050;2024-02-28T04:25:46;98487.72;;;0.91;100.00
79671;BME280;69137;50.878;8.050;2024-02-28T04:28:11;98491.25;;;0.98;100.00
79671;BME280;69137;50.878;8.050;2024-02-28T04:30:36;98490.88;;;1.01;100.00
79671;BME280;69137;50.878;8.050;2024-02-28T04:33:02;98503.50;;;1.07;100.00
79671;BME280;69137;50.878;8.050;2024-02-28T04:35:27;98505.28;;;0.87;100.00
79671;BME280;69137;50.878;8.050;2024-02-28T04:37:53;98498.50;;;0.91;100.00
79671;BME280;69137;50.878;8.050;2024-02-28T04:40:18;98512.13;;;0.90;100.00
79671;BME280;69137;50.878;8.050;2024-02-28T04:42:43;98504.28;;;0.95;100.00
79671;BME280;69137;50.878;8.050;2024-02-28T04:45:09;98512.75;;;0.92;100.00
79671;BME280;69137;50.878;8.050;2024-02-28T04:47:34;98507.38;;;0.92;100.00
79671;BME280;69137;50.878;8.050;2024-02-28T04:50:00;98512.50;;;0.80;100.00
79671;BME280;69137;50.878;8.050;2024-02-28T04:52:25;98507.53;;;0.77;100.00
79671;BME280;69137;50.878;8.050;2024-02-28T04:54:53;98507.16;;;0.86;100.00
79671;BME280;69137;50.878;8.050;2024-02-28T04:57:19;98507.13;;;0.80;100.00
79671;BME280;69137;50.878;8.050;2024-02-28T04:59:44;98516.19;;;0.72;100.00
79671;BME280;69137;50.878;8.050;2024-02-28T05:02:10;98522.41;;;0.73;100.00
79671;BME280;69137;50.878;8.050;2024-02-28T05:04:35;98518.28;;;0.70;100.00
79671;BME280;69137;50.878;8.050;2024-02-28T05:07:01;98523.59;;;0.63;100.00
79671;BME280;69137;50.878;8.050;2024-02-28T05:09:26;98524.34;;;0.51;100.00
79671;BME280;69137;50.878;8.050;2024-02-28T05:11:52;98526.81;;;0.46;100.00
79671;BME280;69137;50.878;8.050;2024-02-28T05:14:17;98523.00;;;0.33;100.00
79671;BME280;69137;50.878;8.050;2024-02-28T05:16:42;98532.13;;;0.39;100.00
79671;BME280;69137;50.878;8.050;2024-02-28T05:19:08;98528.84;;;0.37;100.00
79671;BME280;69137;50.878;8.050;2024-02-28T05:21:41;98535.75;;;0.53;100.00
79671;BME280;69137;50.878;8.050;2024-02-28T05:24:07;98525.63;;;0.55;100.00
79671;BME280;69137;50.878;8.050;2024-02-28T05:26:34;98528.31;;;0.55;100.00
79671;BME280;69137;50.878;8.050;2024-02-28T05:29:00;98527.34;;;0.62;100.00
79671;BME280;69137;50.878;8.050;2024-02-28T05:31:26;98525.41;;;0.56;100.00
79671;BME280;69137;50.878;8.050;2024-02-28T05:33:55;98521.47;;;0.52;100.00
79671;BME280;69137;50.878;8.050;2024-02-28T05:36:25;98529.78;;;0.57;100.00
79671;BME280;69137;50.878;8.050;2024-02-28T05:38:51;98536.56;;;0.53;100.00
79671;BME280;69137;50.878;8.050;2024-02-28T05:41:17;98536.75;;;0.52;100.00
79671;BME280;69137;50.878;8.050;2024-02-28T05:43:46;98544.69;;;0.60;100.00
79671;BME280;69137;50.878;8.050;2024-02-28T05:46:12;98543.00;;;0.59;100.00
79671;BME280;69137;50.878;8.050;2024-02-28T05:48:37;98557.91;;;0.55;100.00
79671;BME280;69137;50.878;8.050;2024-02-28T05:51:03;98563.66;;;0.52;100.00
79671;BME280;69137;50.878;8.050;2024-02-28T05:53:29;98563.41;;;0.47;100.00
79671;BME280;69137;50.878;8.050;2024-02-28T05:56:00;98559.72;;;0.48;100.00
79671;BME280;69137;50.878;8.050;2024-02-28T05:58:25;98561.19;;;0.50;100.00
79671;BME280;69137;50.878;8.050;2024-02-28T06:00:51;98567.56;;;0.49;100.00
79671;BME280;69137;50.878;8.050;2024-02-28T06:03:17;98566.91;;;0.40;100.00
79671;BME280;69137;50.878;8.050;2024-02-28T06:05:42;98564.84;;;0.14;100.00
79671;BME280;69137;50.878;8.050;2024-02-28T06:08:08;98574.06;;;0.33;100.00
79671;BME280;69137;50.878;8.050;2024-02-28T06:10:33;98575.03;;;0.19;100.00
79671;BME280;69137;50.878;8.050;2024-02-28T06:12:58;98570.47;;;0.19;100.00
79671;BME280;69137;50.878;8.050;2024-02-28T06:15:25;98573.97;;;0.20;100.00
79671;BME280;69137;50.878;8.050;2024-02-28T06:17:50;98583.47;;;0.16;100.00
79671;BME280;69137;50.878;8.050;2024-02-28T06:20:15;98583.31;;;0.24;100.00
79671;BME280;69137;50.878;8.050;2024-02-28T06:22:41;98596.63;;;0.32;100.00
79671;BME280;69137;50.878;8.050;2024-02-28T06:25:07;98598.66;;;0.30;100.00
79671;BME280;69137;50.878;8.050;2024-02-28T06:27:38;98593.78;;;0.40;100.00
79671;BME280;69137;50.878;8.050;2024-02-28T06:30:05;98595.81;;;0.38;100.00
79671;BME280;69137;50.878;8.050;2024-02-28T06:32:30;98609.09;;;0.47;100.00
79671;BME280;69137;50.878;8.050;2024-02-28T06:34:56;98600.44;;;0.45;100.00
79671;BME280;69137;50.878;8.050;2024-02-28T06:37:21;98606.00;;;0.43;100.00
79671;BME280;69137;50.878;8.050;2024-02-28T06:39:46;98609.50;;;0.43;100.00
79671;BME280;69137;50.878;8.050;2024-02-28T06:42:11;98613.56;;;0.33;100.00
79671;BME280;69137;50.878;8.050;2024-02-28T06:44:37;98616.00;;;0.28;100.00
79671;BME280;69137;50.878;8.050;2024-02-28T06:47:02;98615.56;;;0.24;100.00
79671;BME280;69137;50.878;8.050;2024-02-28T06:49:27;98618.94;;;0.33;100.00
79671;BME280;69137;50.878;8.050;2024-02-28T06:51:53;98627.00;;;0.33;100.00
79671;BME280;69137;50.878;8.050;2024-02-28T06:54:20;98629.13;;;0.37;100.00
79671;BME280;69137;50.878;8.050;2024-02-28T06:56:46;98629.00;;;0.24;100.00
79671;BME280;69137;50.878;8.050;2024-02-28T06:59:11;98625.09;;;0.27;100.00
79671;BME280;69137;50.878;8.050;2024-02-28T07:01:36;98625.28;;;0.25;100.00
79671;BME280;69137;50.878;8.050;2024-02-28T07:04:02;98634.25;;;0.32;100.00
79671;BME280;69137;50.878;8.050;2024-02-28T07:06:28;98636.25;;;0.24;100.00
79671;BME280;69137;50.878;8.050;2024-02-28T07:08:53;98631.56;;;0.32;100.00
79671;BME280;69137;50.878;8.050;2024-02-28T07:11:18;98637.31;;;0.29;100.00
79671;BME280;69137;50.878;8.050;2024-02-28T07:13:44;98631.84;;;0.16;100.00
79671;BME280;69137;50.878;8.050;2024-02-28T07:16:09;98630.16;;;0.15;100.00
79671;BME280;69137;50.878;8.050;2024-02-28T07:18:34;98634.81;;;0.28;100.00
79671;BME280;69137;50.878;8.050;2024-02-28T07:20:59;98632.97;;;0.28;100.00
79671;BME280;69137;50.878;8.050;2024-02-28T07:23:25;98637.56;;;0.13;100.00
79671;BME280;69137;50.878;8.050;2024-02-28T07:25:51;98641.56;;;0.17;100.00
79671;BME280;69137;50.878;8.050;2024-02-28T07:28:16;98638.63;;;0.12;100.00
79671;BME280;69137;50.878;8.050;2024-02-28T07:30:41;98638.78;;;0.10;100.00
79671;BME280;69137;50.878;8.050;2024-02-28T07:33:08;98631.88;;;0.22;100.00
79671;BME280;69137;50.878;8.050;2024-02-28T07:35:44;98638.78;;;0.10;100.00
79671;BME280;69137;50.878;8.050;2024-02-28T07:38:09;98632.34;;;0.05;100.00
79671;BME280;69137;50.878;8.050;2024-02-28T07:40:34;98637.22;;;0.16;100.00
79671;BME280;69137;50.878;8.050;2024-02-28T07:42:59;98643.03;;;-0.02;100.00
79671;BME280;69137;50.878;8.050;2024-02-28T07:45:25;98650.44;;;-0.04;100.00
79671;BME280;69137;50.878;8.050;2024-02-28T07:47:53;98641.22;;;0.05;100.00
79671;BME280;69137;50.878;8.050;2024-02-28T07:50:18;98649.25;;;-0.02;100.00
79671;BME280;69137;50.878;8.050;2024-02-28T07:52:44;98655.25;;;0.01;100.00
79671;BME280;69137;50.878;8.050;2024-02-28T07:55:09;98655.44;;;-0.01;100.00
79671;BME280;69137;50.878;8.050;2024-02-28T07:57:34;98659.41;;;0.03;100.00
79671;BME280;69137;50.878;8.050;2024-02-28T07:59:59;98657.47;;;-0.03;100.00
79671;BME280;69137;50.878;8.050;2024-02-28T08:02:25;98653.41;;;0.01;100.00
79671;BME280;69137;50.878;8.050;2024-02-28T08:04:50;98679.69;;;0.06;100.00
79671;BME280;69137;50.878;8.050;2024-02-28T08:07:16;98684.03;;;0.07;100.00
79671;BME280;69137;50.878;8.050;2024-02-28T08:09:41;98683.59;;;0.03;100.00
79671;BME280;69137;50.878;8.050;2024-02-28T08:12:07;98682.00;;;0.09;100.00
79671;BME280;69137;50.878;8.050;2024-02-28T08:14:32;98686.19;;;0.18;100.00
79671;BME280;69137;50.878;8.050;2024-02-28T08:16:57;98683.66;;;0.31;100.00
79671;BME280;69137;50.878;8.050;2024-02-28T08:19:23;98689.72;;;0.40;100.00
79671;BME280;69137;50.878;8.050;2024-02-28T08:21:48;98687.09;;;0.25;100.00
79671;BME280;69137;50.878;8.050;2024-02-28T08:24:13;98687.69;;;0.42;100.00
79671;BME280;69137;50.878;8.050;2024-02-28T08:26:38;98680.31;;;0.29;100.00
79671;BME280;69137;50.878;8.050;2024-02-28T08:29:06;98685.69;;;0.29;100.00
79671;BME280;69137;50.878;8.050;2024-02-28T08:31:31;98689.28;;;0.36;100.00
79671;BME280;69137;50.878;8.050;2024-02-28T08:33:56;98682.38;;;0.27;100.00
79671;BME280;69137;50.878;8.050;2024-02-28T08:36:22;98684.28;;;0.33;100.00
79671;BME280;69137;50.878;8.050;2024-02-28T08:38:47;98688.44;;;0.36;100.00
79671;BME280;69137;50.878;8.050;2024-02-28T08:41:12;98685.50;;;0.31;99.86
79671;BME280;69137;50.878;8.050;2024-02-28T08:43:39;98686.22;;;0.39;99.89
79671;BME280;69137;50.878;8.050;2024-02-28T08:46:04;98693.50;;;0.46;99.71
79671;BME280;69137;50.878;8.050;2024-02-28T08:48:29;98687.69;;;0.42;99.08
79671;BME280;69137;50.878;8.050;2024-02-28T08:50:57;98689.41;;;0.50;100.00
79671;BME280;69137;50.878;8.050;2024-02-28T08:53:22;98695.88;;;0.62;99.63
79671;BME280;69137;50.878;8.050;2024-02-28T08:55:48;98694.72;;;0.71;99.35
79671;BME280;69137;50.878;8.050;2024-02-28T08:58:13;98700.59;;;0.81;98.81
79671;BME280;69137;50.878;8.050;2024-02-28T09:00:38;98694.66;;;0.93;98.17
79671;BME280;69137;50.878;8.050;2024-02-28T09:03:04;98702.09;;;0.91;97.89
79671;BME280;69137;50.878;8.050;2024-02-28T09:05:29;98708.34;;;0.91;97.83
79671;BME280;69137;50.878;8.050;2024-02-28T09:07:55;98703.13;;;0.90;97.63
79671;BME280;69137;50.878;8.050;2024-02-28T09:10:20;98709.81;;;0.94;97.04
79671;BME280;69137;50.878;8.050;2024-02-28T09:12:49;98701.28;;;0.90;97.27
79671;BME280;69137;50.878;8.050;2024-02-28T09:15:14;98714.94;;;0.89;96.99
79671;BME280;69137;50.878;8.050;2024-02-28T09:17:39;98723.75;;;0.76;96.91
79671;BME280;69137;50.878;8.050;2024-02-28T09:20:05;98723.41;;;0.64;95.95
79671;BME280;69137;50.878;8.050;2024-02-28T09:22:31;98714.84;;;0.54;96.24
79671;BME280;69137;50.878;8.050;2024-02-28T09:24:57;98725.06;;;0.37;96.88
79671;BME280;69137;50.878;8.050;2024-02-28T09:27:22;98723.25;;;0.44;96.62
79671;BME280;69137;50.878;8.050;2024-02-28T09:29:47;98724.72;;;0.25;97.06
79671;BME280;69137;50.878;8.050;2024-02-28T09:32:13;98733.63;;;0.26;97.85
79671;BME280;69137;50.878;8.050;2024-02-28T09:34:39;98725.63;;;0.32;97.17
79671;BME280;69137;50.878;8.050;2024-02-28T09:37:05;98720.91;;;0.34;97.88
79671;BME280;69137;50.878;8.050;2024-02-28T09:39:30;98718.84;;;0.58;97.04
79671;BME280;69137;50.878;8.050;2024-02-28T09:41:55;98716.44;;;0.70;96.41
79671;BME280;69137;50.878;8.050;2024-02-28T09:44:22;98718.28;;;0.69;95.31
79671;BME280;69137;50.878;8.050;2024-02-28T09:46:51;98718.97;;;0.50;96.05
79671;BME280;69137;50.878;8.050;2024-02-28T09:49:18;98731.19;;;0.52;95.20
79671;BME280;69137;50.878;8.050;2024-02-28T09:51:44;98729.44;;;0.66;94.83
79671;BME280;69137;50.878;8.050;2024-02-28T09:54:09;98727.25;;;0.76;95.89
79671;BME280;69137;50.878;8.050;2024-02-28T09:56:34;98732.31;;;0.86;94.45
79671;BME280;69137;50.878;8.050;2024-02-28T09:59:01;98726.06;;;0.85;95.43
79671;BME280;69137;50.878;8.050;2024-02-28T10:01:29;98728.25;;;0.97;95.86
79671;BME280;69137;50.878;8.050;2024-02-28T10:03:55;98729.16;;;1.11;94.19
79671;BME280;69137;50.878;8.050;2024-02-28T10:06:23;98737.44;;;1.09;94.74
79671;BME280;69137;50.878;8.050;2024-02-28T10:08:48;98739.56;;;1.20;93.61
79671;BME280;69137;50.878;8.050;2024-02-28T10:11:22;98744.56;;;1.23;93.34
79671;BME280;69137;50.878;8.050;2024-02-28T10:13:48;98743.63;;;1.44;92.90
79671;BME280;69137;50.878;8.050;2024-02-28T10:16:14;98749.31;;;1.56;92.00
79671;BME280;69137;50.878;8.050;2024-02-28T10:18:45;98747.00;;;1.53;93.21
79671;BME280;69137;50.878;8.050;2024-02-28T10:21:11;98750.97;;;1.57;92.62
79671;BME280;69137;50.878;8.050;2024-02-28T10:23:43;98746.31;;;1.79;91.79
79671;BME280;69137;50.878;8.050;2024-02-28T10:26:10;98750.28;;;1.90;90.48
79671;BME280;69137;50.878;8.050;2024-02-28T10:28:39;98752.78;;;1.50;90.95
79671;BME280;69137;50.878;8.050;2024-02-28T10:31:08;98752.81;;;1.57;90.79
79671;BME280;69137;50.878;8.050;2024-02-28T10:33:33;98760.44;;;1.46;92.97
79671;BME280;69137;50.878;8.050;2024-02-28T10:36:02;98744.16;;;1.61;90.74
79671;BME280;69137;50.878;8.050;2024-02-28T10:38:28;98748.78;;;1.39;92.59
79671;BME280;69137;50.878;8.050;2024-02-28T10:40:54;98750.34;;;1.20;92.67
79671;BME280;69137;50.878;8.050;2024-02-28T10:43:20;98752.47;;;1.03;93.50
79671;BME280;69137;50.878;8.050;2024-02-28T10:45:46;98747.31;;;1.30;94.37
79671;BME280;69137;50.878;8.050;2024-02-28T10:48:14;98750.91;;;1.44;94.22
79671;BME280;69137;50.878;8.050;2024-02-28T10:50:44;98751.94;;;1.43;93.07
79671;BME280;69137;50.878;8.050;2024-02-28T10:53:14;98744.47;;;1.45;92.56
79671;BME280;69137;50.878;8.050;2024-02-28T10:55:41;98738.91;;;1.46;93.00
79671;BME280;69137;50.878;8.050;2024-02-28T10:58:08;98738.09;;;1.52;92.52
79671;BME280;69137;50.878;8.050;2024-02-28T11:00:36;98738.81;;;1.74;92.45
79671;BME280;69137;50.878;8.050;2024-02-28T11:03:04;98737.59;;;1.84;92.12
79671;BME280;69137;50.878;8.050;2024-02-28T11:05:37;98742.63;;;1.87;91.95
79671;BME280;69137;50.878;8.050;2024-02-28T11:08:07;98737.66;;;1.97;90.89
79671;BME280;69137;50.878;8.050;2024-02-28T11:10:33;98730.19;;;1.92;90.27
79671;BME280;69137;50.878;8.050;2024-02-28T11:12:59;98736.41;;;2.00;90.83
79671;BME280;69137;50.878;8.050;2024-02-28T11:15:25;98735.25;;;2.15;90.80
79671;BME280;69137;50.878;8.050;2024-02-28T11:17:54;98735.84;;;2.17;90.22
79671;BME280;69137;50.878;8.050;2024-02-28T11:20:19;98732.53;;;2.22;90.10
79671;BME280;69137;50.878;8.050;2024-02-28T11:22:45;98723.63;;;2.28;89.70
79671;BME280;69137;50.878;8.050;2024-02-28T11:25:10;98714.72;;;2.28;89.65
79671;BME280;69137;50.878;8.050;2024-02-28T11:27:46;98716.19;;;2.37;90.19
79671;BME280;69137;50.878;8.050;2024-02-28T11:30:12;98723.03;;;2.46;88.64
79671;BME280;69137;50.878;8.050;2024-02-28T11:32:38;98715.78;;;2.47;88.51
79671;BME280;69137;50.878;8.050;2024-02-28T11:35:04;98727.81;;;2.44;89.64
79671;BME280;69137;50.878;8.050;2024-02-28T11:37:29;98722.22;;;2.39;90.78
79671;BME280;69137;50.878;8.050;2024-02-28T11:39:54;98716.22;;;2.57;89.85
79671;BME280;69137;50.878;8.050;2024-02-28T11:42:20;98721.41;;;2.78;87.75
79671;BME280;69137;50.878;8.050;2024-02-28T11:44:55;98714.34;;;2.91;86.96
79671;BME280;69137;50.878;8.050;2024-02-28T11:47:22;98715.38;;;2.96;86.68
79671;BME280;69137;50.878;8.050;2024-02-28T11:49:49;98721.59;;;2.90;86.03
79671;BME280;69137;50.878;8.050;2024-02-28T11:52:14;98712.06;;;2.94;87.58
79671;BME280;69137;50.878;8.050;2024-02-28T11:54:39;98698.94;;;3.18;86.67
79671;BME280;69137;50.878;8.050;2024-02-28T11:57:07;98702.03;;;3.35;84.96
79671;BME280;69137;50.878;8.050;2024-02-28T11:59:32;98701.56;;;3.44;84.29
79671;BME280;69137;50.878;8.050;2024-02-28T12:01:58;98707.91;;;3.70;83.34
79671;BME280;69137;50.878;8.050;2024-02-28T12:04:26;98702.19;;;3.98;82.43
79671;BME280;69137;50.878;8.050;2024-02-28T12:06:51;98697.59;;;3.99;82.90
79671;BME280;69137;50.878;8.050;2024-02-28T12:09:17;98700.75;;;3.89;81.61
79671;BME280;69137;50.878;8.050;2024-02-28T12:11:43;98692.13;;;3.74;81.55
79671;BME280;69137;50.878;8.050;2024-02-28T12:14:10;98689.19;;;3.75;82.10
79671;BME280;69137;50.878;8.050;2024-02-28T12:16:38;98692.78;;;3.62;82.36
79671;BME280;69137;50.878;8.050;2024-02-28T12:19:07;98686.75;;;3.60;82.98
79671;BME280;69137;50.878;8.050;2024-02-28T12:21:33;98686.94;;;3.65;81.41
79671;BME280;69137;50.878;8.050;2024-02-28T12:23:58;98680.50;;;3.66;81.94
79671;BME280;69137;50.878;8.050;2024-02-28T12:26:24;98683.78;;;3.75;81.42
79671;BME280;69137;50.878;8.050;2024-02-28T12:28:49;98676.75;;;4.06;80.71
79671;BME280;69137;50.878;8.050;2024-02-28T12:31:14;98679.00;;;4.15;81.66
79671;BME280;69137;50.878;8.050;2024-02-28T12:33:40;98671.47;;;4.18;81.57
79671;BME280;69137;50.878;8.050;2024-02-28T12:36:05;98669.69;;;4.36;81.14
79671;BME280;69137;50.878;8.050;2024-02-28T12:38:31;98668.09;;;4.54;80.72
79671;BME280;69137;50.878;8.050;2024-02-28T12:40:57;98658.38;;;4.71;78.62
79671;BME280;69137;50.878;8.050;2024-02-28T12:43:22;98664.06;;;4.63;78.26
79671;BME280;69137;50.878;8.050;2024-02-28T12:45:47;98654.63;;;4.72;77.93
79671;BME280;69137;50.878;8.050;2024-02-28T12:48:12;98658.44;;;4.65;77.37
79671;BME280;69137;50.878;8.050;2024-02-28T12:50:38;98647.22;;;4.61;78.49
79671;BME280;69137;50.878;8.050;2024-02-28T12:53:03;98644.34;;;4.81;79.15
79671;BME280;69137;50.878;8.050;2024-02-28T12:55:28;98641.47;;;4.76;77.78
79671;BME280;69137;50.878;8.050;2024-02-28T12:57:54;98638.72;;;4.82;78.39